createdAt,value
2018-01-15T00:01:33.957Z,-2.50
2018-01-15T00:04:02.319Z,-2.50
2018-01-15T00:06:30.648Z,-2.50
2018-01-15T00:08:59.774Z,-2.50
2018-01-15T00:11:28.110Z,-2.50
2018-01-15T00:13:56.465Z,-2.50
2018-01-15T00:16:24.821Z,-2.60
2018-01-15T00:18:53.331Z,-2.60
2018-01-15T00:21:21.639Z,-2.60
2018-01-15T00:23:49.958Z,-2.70
2018-01-15T00:26:18.305Z,-2.70
2018-01-15T00:28:47.387Z,-2.70
2018-01-15T00:31:15.782Z,-2.80
2018-01-15T00:33:44.884Z,-2.70
2018-01-15T00:36:13.996Z,-2.70
2018-01-15T00:38:42.323Z,-2.80
2018-01-15T00:41:10.685Z,-2.70
2018-01-15T00:43:39.008Z,-2.70
2018-01-15T00:46:07.375Z,-2.70
2018-01-15T00:48:35.712Z,-2.70
2018-01-15T00:51:04.065Z,-2.80
2018-01-15T00:53:32.384Z,-2.80
2018-01-15T00:56:00.740Z,-2.80
2018-01-15T00:58:29.528Z,-2.80
2018-01-15T01:00:57.840Z,-2.90
2018-01-15T01:03:26.195Z,-2.80
2018-01-15T01:05:54.523Z,-2.80
2018-01-15T01:08:22.868Z,-2.70
2018-01-15T01:10:51.199Z,-2.90
2018-01-15T01:13:19.559Z,-2.80
2018-01-15T01:15:47.886Z,-2.80
2018-01-15T01:18:16.231Z,-2.90
2018-01-15T01:20:45.360Z,-3.20
2018-01-15T01:23:13.719Z,-3.20
2018-01-15T01:25:42.044Z,-3.20
2018-01-15T01:28:10.372Z,-3.20
2018-01-15T01:30:38.722Z,-3.20
2018-01-15T01:33:07.832Z,-3.20
2018-01-15T01:35:36.939Z,-3.20
2018-01-15T01:38:06.038Z,-3.20
2018-01-15T01:40:34.412Z,-3.20
2018-01-15T01:43:02.754Z,-3.20
2018-01-15T01:45:31.271Z,-3.20
2018-01-15T01:48:00.359Z,-3.20
2018-01-15T01:50:28.691Z,-3.20
2018-01-15T01:52:57.055Z,-3.20
2018-01-15T01:55:25.384Z,-3.20
2018-01-15T01:57:53.739Z,-3.20
2018-01-15T02:00:22.063Z,-3.20
2018-01-15T02:02:50.431Z,-3.10
2018-01-15T02:05:19.522Z,-3.10
2018-01-15T02:07:47.866Z,-3.10
2018-01-15T02:10:16.183Z,-3.00
2018-01-15T02:12:44.592Z,-2.90
2018-01-15T02:15:12.931Z,-2.90
2018-01-15T02:17:41.262Z,-2.80
2018-01-15T02:20:09.610Z,-2.80
2018-01-15T02:22:38.708Z,-2.90
2018-01-15T02:25:07.811Z,-3.00
2018-01-15T02:27:36.883Z,-3.10
2018-01-15T02:30:05.232Z,-3.10
2018-01-15T02:32:33.588Z,-3.10
2018-01-15T02:35:01.936Z,-3.10
2018-01-15T02:37:31.023Z,-3.00
2018-01-15T02:39:59.392Z,-3.10
2018-01-15T02:42:28.505Z,-2.80
2018-01-15T02:44:57.635Z,-2.50
2018-01-15T02:47:25.976Z,-2.50
2018-01-15T02:49:55.067Z,-2.40
2018-01-15T02:52:24.179Z,-2.40
2018-01-15T02:54:53.263Z,-2.40
2018-01-15T02:57:22.371Z,-2.20
2018-01-15T02:59:51.463Z,-1.90
2018-01-15T03:02:20.582Z,-1.90
2018-01-15T03:04:48.919Z,-1.90
2018-01-15T03:07:17.256Z,-2.00
2018-01-15T03:09:45.659Z,-2.10
2018-01-15T03:12:14.000Z,-2.10
2018-01-15T03:14:43.091Z,-2.00
2018-01-15T03:17:11.453Z,-2.00
2018-01-15T03:19:40.547Z,-2.00
2018-01-15T03:22:09.644Z,-1.90
2018-01-15T03:24:38.751Z,-2.00
2018-01-15T03:27:07.082Z,-2.00
2018-01-15T03:29:35.436Z,-1.90
2018-01-15T03:32:03.757Z,-1.80
2018-01-15T03:34:32.095Z,-1.90
2018-01-15T03:37:01.199Z,-1.80
2018-01-15T03:39:29.555Z,-1.80
2018-01-15T03:41:57.923Z,-1.70
2018-01-15T03:44:26.415Z,-1.60
2018-01-15T03:46:54.790Z,-1.60
2018-01-15T03:49:23.121Z,-1.60
2018-01-15T03:51:51.467Z,-1.60
2018-01-15T03:54:19.786Z,-1.60
2018-01-15T03:56:48.137Z,-1.50
2018-01-15T03:59:16.468Z,-1.50
2018-01-15T04:01:45.577Z,-1.50
2018-01-15T04:04:13.899Z,-1.50
2018-01-15T04:06:42.257Z,-1.50
2018-01-15T04:09:10.593Z,-1.50
2018-01-15T04:11:39.700Z,-1.50
2018-01-15T04:14:08.791Z,-1.50
2018-01-15T04:16:37.155Z,-1.50
2018-01-15T04:19:05.491Z,-1.50
2018-01-15T04:21:33.803Z,-1.40
2018-01-15T04:24:02.164Z,-1.40
2018-01-15T04:26:30.498Z,-1.40
2018-01-15T04:28:58.855Z,-1.40
2018-01-15T04:31:27.189Z,-1.40
2018-01-15T04:33:55.535Z,-1.30
2018-01-15T04:36:23.855Z,-1.30
2018-01-15T04:38:52.216Z,-1.30
2018-01-15T04:41:20.540Z,-1.30
2018-01-15T04:43:49.049Z,-1.20
2018-01-15T04:46:17.375Z,-1.20
2018-01-15T04:48:45.712Z,-1.20
2018-01-15T04:51:14.074Z,-1.10
2018-01-15T04:53:43.180Z,-1.10
2018-01-15T04:56:11.533Z,-1.10
2018-01-15T04:58:39.895Z,-0.90
2018-01-15T05:01:08.225Z,-1.00
2018-01-15T05:03:36.548Z,-1.00
2018-01-15T05:06:04.912Z,-0.90
2018-01-15T05:08:33.252Z,-1.10
2018-01-15T05:11:01.605Z,-1.10
2018-01-15T05:13:29.942Z,-1.10
2018-01-15T05:15:58.264Z,-1.00
2018-01-15T05:18:26.608Z,-1.00
2018-01-15T05:20:54.935Z,-1.00
2018-01-15T05:23:23.305Z,-1.10
2018-01-15T05:25:51.632Z,-1.10
2018-01-15T05:28:19.976Z,-1.00
2018-01-15T05:30:49.073Z,-0.80
2018-01-15T05:33:18.189Z,-0.80
2018-01-15T05:35:46.516Z,-0.80
2018-01-15T05:38:15.034Z,-0.70
2018-01-15T05:40:43.355Z,-0.70
2018-01-15T05:43:11.692Z,-0.80
2018-01-15T05:45:40.856Z,-0.80
2018-01-15T05:48:09.174Z,-0.80
2018-01-15T05:50:37.534Z,-0.80
2018-01-15T05:53:05.862Z,-0.80
2018-01-15T05:55:34.214Z,-0.70
2018-01-15T05:58:02.536Z,-0.70
2018-01-15T06:00:30.887Z,-0.70
2018-01-15T06:02:59.976Z,-0.80
2018-01-15T06:05:28.335Z,-0.80
2018-01-15T06:07:57.429Z,-0.60
2018-01-15T06:10:26.713Z,-0.80
2018-01-15T06:12:55.051Z,-0.80
2018-01-15T06:15:23.392Z,-0.80
2018-01-15T06:17:52.561Z,-0.70
2018-01-15T06:20:20.879Z,-0.70
2018-01-15T06:22:49.221Z,-0.70
2018-01-15T06:25:17.573Z,-0.60
2018-01-15T06:27:45.920Z,-0.70
2018-01-15T06:30:14.255Z,-0.70
2018-01-15T06:32:42.610Z,-0.70
2018-01-15T06:35:10.929Z,-0.70
2018-01-15T06:37:40.054Z,-0.50
2018-01-15T06:40:08.390Z,-0.50
2018-01-15T06:42:36.754Z,-0.50
2018-01-15T06:45:05.083Z,-0.40
2018-01-15T06:47:33.413Z,-0.30
2018-01-15T06:50:01.760Z,-0.30
2018-01-15T06:52:30.080Z,-0.30
2018-01-15T06:54:58.437Z,-0.40
2018-01-15T06:57:26.780Z,-0.40
2018-01-15T06:59:55.141Z,-0.30
2018-01-15T07:02:24.225Z,-0.20
2018-01-15T07:04:52.585Z,-0.20
2018-01-15T07:07:20.924Z,-0.20
2018-01-15T07:09:49.289Z,-0.10
2018-01-15T07:12:17.612Z,-0.20
2018-01-15T07:14:45.961Z,-0.30
2018-01-15T07:17:14.292Z,-0.40
2018-01-15T07:19:42.647Z,-0.30
2018-01-15T07:22:10.971Z,-0.20
2018-01-15T07:24:39.373Z,-0.20
2018-01-15T07:27:07.700Z,-0.10
2018-01-15T07:29:36.035Z,-0.20
2018-01-15T07:32:04.393Z,-0.20
2018-01-15T07:34:33.472Z,-0.10
2018-01-15T07:37:02.573Z,0.00
2018-01-15T07:39:31.657Z,-0.10
2018-01-15T07:42:00.000Z,-0.10
2018-01-15T07:44:28.316Z,0.00
2018-01-15T07:46:56.672Z,-0.10
2018-01-15T07:49:25.013Z,-0.10
2018-01-15T07:51:53.365Z,0.00
2018-01-15T07:54:22.451Z,0.00
2018-01-15T07:56:50.792Z,0.00
2018-01-15T07:59:19.104Z,0.20
2018-01-15T08:01:47.431Z,0.20
2018-01-15T08:04:15.768Z,0.20
2018-01-15T08:06:44.846Z,0.10
2018-01-15T08:09:13.199Z,0.10
2018-01-15T08:11:41.524Z,0.10
2018-01-15T08:14:09.856Z,0.00
2018-01-15T08:16:38.191Z,-0.10
2018-01-15T08:19:07.316Z,0.00
2018-01-15T08:21:35.637Z,0.00
2018-01-15T08:24:03.993Z,0.10
2018-01-15T08:26:32.315Z,0.10
2018-01-15T08:29:01.428Z,0.20
2018-01-15T08:31:29.758Z,0.20
2018-01-15T08:33:58.072Z,0.20
2018-01-15T08:36:27.182Z,0.20
2018-01-15T08:38:55.504Z,0.20
2018-01-15T08:41:23.841Z,0.20
2018-01-15T08:43:52.177Z,0.30
2018-01-15T08:46:20.525Z,0.40
2018-01-15T08:48:48.842Z,0.40
2018-01-15T08:51:17.182Z,0.40
2018-01-15T08:53:45.504Z,0.40
2018-01-15T08:56:13.853Z,0.40
2018-01-15T08:58:42.173Z,0.50
2018-01-15T09:01:11.276Z,0.60
2018-01-15T09:03:40.352Z,0.60
2018-01-15T09:06:08.659Z,0.50
2018-01-15T09:08:37.004Z,0.60
2018-01-15T09:11:05.309Z,0.60
2018-01-15T09:13:34.416Z,0.70
2018-01-15T09:16:02.769Z,0.60
2018-01-15T09:18:31.087Z,0.70
2018-01-15T09:20:59.427Z,0.60
2018-01-15T09:23:28.500Z,0.90
2018-01-15T09:25:56.843Z,0.80
2018-01-15T09:28:25.156Z,0.80
2018-01-15T09:30:53.492Z,0.70
2018-01-15T09:33:21.829Z,0.80
2018-01-15T09:35:50.166Z,0.90
2018-01-15T09:38:18.536Z,1.00
2018-01-15T09:40:46.870Z,1.10
2018-01-15T09:43:15.218Z,1.10
2018-01-15T09:45:43.560Z,1.10
2018-01-15T09:48:11.887Z,1.00
2018-01-15T09:50:40.236Z,1.00
2018-01-15T09:53:08.555Z,1.00
2018-01-15T09:55:36.907Z,1.10
2018-01-15T09:58:05.215Z,1.20
2018-01-15T10:00:33.524Z,1.20
2018-01-15T10:03:01.885Z,1.30
2018-01-15T10:05:30.226Z,1.30
2018-01-15T10:07:58.554Z,1.40
2018-01-15T10:10:26.873Z,1.40
2018-01-15T10:12:55.211Z,1.40
2018-01-15T10:15:24.298Z,1.40
2018-01-15T10:17:53.414Z,1.50
2018-01-15T10:20:21.740Z,1.50
2018-01-15T10:22:50.081Z,1.60
2018-01-15T10:25:18.398Z,1.60
2018-01-15T10:27:46.753Z,1.70
2018-01-15T10:30:15.068Z,1.90
2018-01-15T10:32:43.406Z,1.80
2018-01-15T10:35:11.728Z,1.90
2018-01-15T10:37:40.050Z,2.00
2018-01-15T10:40:08.390Z,2.10
2018-01-15T10:42:37.476Z,2.00
2018-01-15T10:45:05.825Z,2.00
2018-01-15T10:47:34.153Z,1.90
2018-01-15T10:50:03.279Z,1.90
2018-01-15T10:52:31.610Z,1.90
2018-01-15T10:54:59.960Z,2.00
2018-01-15T10:57:28.279Z,2.20
2018-01-15T10:59:56.652Z,2.20
2018-01-15T11:02:24.968Z,2.30
2018-01-15T11:04:53.316Z,2.40
2018-01-15T11:07:21.614Z,2.40
2018-01-15T11:09:49.968Z,2.50
2018-01-15T11:12:18.287Z,2.50
2018-01-15T11:14:46.647Z,2.30
2018-01-15T11:17:14.956Z,2.20
2018-01-15T11:19:43.293Z,2.10
2018-01-15T11:22:12.404Z,2.10
2018-01-15T11:24:40.728Z,2.10
2018-01-15T11:27:09.056Z,2.10
2018-01-15T11:29:37.403Z,2.10
2018-01-15T11:32:05.763Z,2.10
2018-01-15T11:34:34.074Z,2.10
2018-01-15T11:37:02.431Z,2.10
2018-01-15T11:39:30.781Z,2.10
2018-01-15T11:41:59.112Z,2.10
2018-01-15T11:44:28.219Z,2.30
2018-01-15T11:46:57.320Z,2.20
2018-01-15T11:49:26.421Z,2.20
2018-01-15T11:51:54.753Z,2.20
2018-01-15T11:54:23.092Z,2.20
2018-01-15T11:56:51.412Z,2.20
2018-01-15T11:59:19.754Z,2.30
2018-01-15T12:01:48.077Z,2.40
2018-01-15T12:04:16.397Z,2.50
2018-01-15T12:06:44.743Z,2.50
2018-01-15T12:09:13.054Z,2.50
2018-01-15T12:11:41.400Z,2.50
2018-01-15T12:14:09.713Z,2.40
2018-01-15T12:16:38.848Z,2.40
2018-01-15T12:19:07.180Z,2.40
2018-01-15T12:21:35.596Z,2.50
2018-01-15T12:24:04.644Z,2.60
2018-01-15T12:26:33.764Z,2.50
2018-01-15T12:29:02.088Z,2.50
2018-01-15T12:31:30.438Z,2.40
2018-01-15T12:33:58.773Z,2.50
2018-01-15T12:36:27.987Z,2.60
2018-01-15T12:38:56.325Z,2.70
2018-01-15T12:41:24.684Z,2.80
2018-01-15T12:43:53.012Z,2.80
2018-01-15T12:46:22.109Z,2.80
2018-01-15T12:48:51.211Z,2.80
2018-01-15T12:51:19.573Z,2.80
2018-01-15T12:53:47.889Z,2.80
2018-01-15T12:56:16.216Z,2.70
2018-01-15T12:58:44.537Z,2.70
2018-01-15T13:01:12.880Z,2.80
2018-01-15T13:03:41.219Z,2.80
2018-01-15T13:06:09.568Z,2.80
2018-01-15T13:11:45.273Z,2.70
2018-01-15T13:14:13.596Z,2.60
2018-01-15T13:16:41.945Z,2.70
2018-01-15T13:19:10.259Z,2.80
2018-01-15T13:21:39.372Z,2.90
2018-01-15T13:24:08.466Z,2.90
2018-01-15T13:26:37.588Z,2.90
2018-01-15T13:29:05.920Z,2.90
2018-01-15T13:31:34.253Z,2.70
2018-01-15T13:34:02.600Z,2.70
2018-01-15T13:36:31.673Z,2.90
2018-01-15T13:39:00.024Z,2.90
2018-01-15T13:41:28.359Z,3.00
2018-01-15T13:43:56.699Z,2.90
2018-01-15T13:46:25.824Z,3.00
2018-01-15T13:48:54.944Z,3.00
2018-01-15T13:51:23.272Z,3.00
2018-01-15T13:53:51.632Z,3.10
2018-01-15T13:56:19.964Z,3.00
2018-01-15T13:58:49.077Z,3.10
2018-01-15T14:01:17.407Z,3.10
2018-01-15T14:03:45.751Z,3.20
2018-01-15T14:06:14.073Z,3.10
2018-01-15T14:08:42.422Z,3.10
2018-01-15T14:11:10.745Z,3.00
2018-01-15T14:13:39.855Z,2.90
2018-01-15T14:16:08.200Z,2.90
2018-01-15T14:18:36.544Z,3.00
2018-01-15T14:21:04.877Z,2.90
2018-01-15T14:23:33.995Z,2.80
2018-01-15T14:26:02.308Z,2.80
2018-01-15T14:28:30.662Z,2.70
2018-01-15T14:30:58.980Z,2.70
2018-01-15T14:33:27.330Z,2.80
2018-01-15T14:35:55.649Z,2.80
2018-01-15T14:38:24.008Z,2.80
2018-01-15T14:40:52.322Z,2.80
2018-01-15T14:43:21.467Z,2.90
2018-01-15T14:45:49.802Z,2.90
2018-01-15T14:48:18.919Z,3.00
2018-01-15T14:50:47.242Z,3.00
2018-01-15T14:53:15.585Z,3.00
2018-01-15T14:55:43.915Z,3.00
2018-01-15T14:58:12.256Z,3.00
2018-01-15T15:00:40.567Z,3.00
2018-01-15T15:03:08.904Z,3.00
2018-01-15T15:05:37.232Z,3.00
2018-01-15T15:08:05.569Z,3.10
2018-01-15T15:10:33.884Z,3.30
2018-01-15T15:13:02.236Z,3.30
2018-01-15T15:15:30.572Z,3.50
2018-01-15T15:17:58.917Z,3.70
2018-01-15T15:20:27.229Z,3.80
2018-01-15T15:22:56.341Z,3.90
2018-01-15T15:25:24.656Z,3.90
2018-01-15T15:27:53.000Z,3.90
2018-01-15T15:30:21.343Z,3.90
2018-01-15T15:32:49.692Z,4.00
2018-01-15T15:35:18.012Z,4.00
2018-01-15T15:37:47.094Z,4.10
2018-01-15T15:40:15.438Z,4.10
2018-01-15T15:42:43.758Z,4.00
2018-01-15T15:45:12.123Z,4.10
2018-01-15T15:47:40.443Z,4.20
2018-01-15T15:50:08.810Z,4.10
2018-01-15T15:52:37.894Z,4.20
2018-01-15T15:55:07.003Z,4.10
2018-01-15T15:57:36.083Z,4.20
2018-01-15T16:00:04.426Z,4.10
2018-01-15T16:02:32.739Z,4.20
2018-01-15T16:05:01.862Z,4.20
2018-01-15T16:07:30.200Z,4.20
2018-01-15T16:09:58.562Z,4.20
2018-01-15T16:12:26.885Z,4.20
2018-01-15T16:14:56.010Z,4.30
2018-01-15T16:17:24.313Z,4.30
2018-01-15T16:19:52.652Z,4.40
2018-01-15T16:22:30.801Z,4.40
2018-01-15T16:24:59.155Z,4.50
2018-01-15T16:27:27.558Z,4.50
2018-01-15T16:29:55.895Z,4.60
2018-01-15T16:32:24.211Z,4.40
2018-01-15T16:34:52.557Z,4.50
2018-01-15T16:37:20.876Z,4.50
2018-01-15T16:39:49.239Z,4.40
2018-01-15T16:42:17.549Z,4.50
2018-01-15T16:44:45.897Z,4.40
2018-01-15T16:47:14.217Z,4.40
2018-01-15T16:49:42.565Z,4.50
2018-01-15T16:52:10.870Z,4.50
2018-01-15T16:54:39.213Z,4.50
2018-01-15T16:57:07.544Z,4.60
2018-01-15T16:59:36.657Z,4.50
2018-01-15T17:04:33.326Z,4.50
2018-01-15T17:07:01.656Z,4.50
2018-01-15T17:09:29.960Z,4.40
2018-01-15T17:11:59.066Z,4.50
2018-01-15T17:14:27.387Z,4.50
2018-01-15T17:16:55.754Z,4.50
2018-01-15T17:19:24.079Z,4.60
2018-01-15T17:21:53.203Z,4.50
2018-01-15T17:24:21.521Z,4.50
2018-01-15T17:26:49.880Z,4.50
2018-01-15T17:29:18.210Z,4.50
2018-01-15T17:31:46.539Z,4.60
2018-01-15T17:34:14.864Z,4.60
2018-01-15T17:36:43.228Z,4.50
2018-01-15T17:39:11.539Z,4.50
2018-01-15T17:41:40.653Z,4.60
2018-01-15T17:44:08.962Z,4.60
2018-01-15T17:46:37.296Z,4.80
2018-01-15T17:49:06.388Z,4.80
2018-01-15T17:51:35.496Z,4.80
2018-01-15T17:54:04.589Z,4.80
2018-01-15T17:56:33.690Z,4.70
2018-01-15T17:59:02.759Z,4.70
2018-01-15T18:01:31.089Z,4.70
2018-01-15T18:03:59.440Z,4.70
2018-01-15T18:06:28.537Z,4.70
2018-01-15T18:08:57.609Z,4.80
2018-01-15T18:11:25.956Z,4.80
2018-01-15T18:13:54.274Z,4.90
2018-01-15T18:16:22.608Z,5.00
2018-01-15T18:18:50.919Z,4.90
2018-01-15T18:21:19.256Z,4.90
2018-01-15T18:23:47.567Z,4.90
2018-01-15T18:26:15.885Z,4.90
2018-01-15T18:28:44.204Z,5.00
2018-01-15T18:31:12.532Z,5.10
2018-01-15T18:33:41.605Z,5.00
2018-01-15T18:36:09.944Z,5.00
2018-01-15T18:38:38.258Z,5.10
2018-01-15T18:41:06.600Z,5.00
2018-01-15T18:43:34.929Z,5.00
2018-01-15T18:46:03.258Z,5.10
2018-01-15T18:48:31.573Z,5.10
2018-01-15T18:50:59.911Z,5.10
2018-01-15T18:53:28.223Z,5.10
2018-01-15T18:55:56.529Z,5.00
2018-01-15T18:58:25.635Z,5.00
2018-01-15T19:00:54.720Z,5.00
2018-01-15T19:03:23.820Z,4.90
2018-01-15T19:05:52.905Z,4.90
2018-01-15T19:08:21.266Z,4.80
2018-01-15T19:10:49.578Z,5.00
2018-01-15T19:13:18.686Z,4.80
2018-01-15T19:15:47.045Z,4.80
2018-01-15T19:18:16.156Z,4.80
2018-01-15T19:20:45.255Z,4.80
2018-01-15T19:23:14.385Z,4.70
2018-01-15T19:25:42.731Z,4.70
2018-01-15T19:28:11.140Z,4.70
2018-01-15T19:30:39.531Z,4.70
2018-01-15T19:33:07.919Z,4.70
2018-01-15T19:35:51.904Z,4.70
2018-01-15T19:38:20.960Z,4.70
2018-01-15T19:40:49.355Z,4.80
2018-01-15T19:43:18.241Z,4.70
2018-01-15T19:45:52.337Z,4.70
2018-01-15T19:48:26.401Z,4.70
2018-01-15T19:51:01.258Z,4.70
2018-01-15T19:53:35.185Z,4.70
2018-01-15T19:56:09.296Z,4.60
2018-01-15T19:58:43.376Z,4.70
2018-01-15T20:01:17.486Z,4.60
2018-01-15T20:03:52.404Z,4.60
2018-01-15T20:06:27.273Z,4.60
2018-01-15T20:09:01.205Z,4.60
2018-01-15T20:11:29.542Z,4.60
2018-01-15T20:13:58.704Z,4.60
2018-01-15T20:16:27.055Z,4.60
2018-01-15T20:18:55.420Z,4.50
2018-01-15T20:21:23.828Z,4.50
2018-01-15T20:23:52.290Z,4.50
2018-01-15T20:26:21.393Z,4.40
2018-01-15T20:28:49.811Z,4.40
2018-01-15T20:31:18.236Z,4.40
2018-01-15T20:33:47.606Z,4.40
2018-01-15T20:36:16.714Z,4.30
2018-01-15T20:38:45.147Z,4.30
2018-01-15T20:41:13.539Z,4.30
2018-01-15T20:43:41.922Z,4.30
2018-01-15T20:46:10.334Z,4.30
2018-01-15T20:48:39.512Z,4.30
2018-01-15T20:51:07.918Z,4.30
2018-01-15T20:53:36.413Z,4.30
2018-01-15T20:56:04.769Z,4.30
2018-01-15T20:58:33.983Z,4.30
2018-01-15T21:01:02.417Z,4.30
2018-01-15T21:03:30.930Z,4.30
2018-01-15T21:05:59.379Z,4.30
2018-01-15T21:08:27.783Z,4.30
2018-01-15T21:10:56.196Z,4.40
2018-01-15T21:13:24.621Z,4.40
2018-01-15T21:15:53.064Z,4.40
2018-01-15T21:18:21.439Z,4.40
2018-01-15T21:20:49.857Z,4.40
2018-01-15T21:23:18.251Z,4.40
2018-01-15T21:25:46.672Z,4.30
2018-01-15T21:28:15.052Z,4.40
2018-01-15T21:30:43.501Z,4.40
2018-01-15T21:33:11.895Z,4.30
2018-01-15T21:35:41.100Z,4.40
2018-01-15T21:38:10.352Z,4.30
2018-01-15T21:40:39.887Z,4.30
2018-01-15T21:43:08.518Z,4.40
2018-01-15T21:45:37.194Z,4.30
2018-01-15T21:48:09.129Z,4.30
2018-01-15T21:57:00.973Z,4.20
2018-01-15T21:59:29.433Z,4.30
2018-01-15T22:01:57.783Z,4.20
2018-01-15T22:04:26.226Z,4.20
2018-01-15T22:06:54.629Z,4.20
2018-01-15T22:09:23.819Z,4.20
2018-01-15T22:11:52.214Z,4.20
2018-01-15T22:14:21.370Z,4.20
2018-01-15T22:16:50.896Z,4.20
2018-01-15T22:19:19.264Z,4.20
2018-01-15T22:21:47.595Z,4.20
2018-01-15T22:24:15.982Z,4.30
2018-01-15T22:26:44.396Z,4.30
2018-01-15T22:29:12.734Z,4.30
2018-01-15T22:31:41.070Z,4.30
2018-01-15T22:34:09.410Z,4.30
2018-01-15T22:36:37.769Z,4.30
2018-01-15T22:39:06.136Z,4.40
2018-01-15T22:41:35.339Z,4.50
2018-01-15T22:44:03.729Z,4.50
2018-01-15T22:46:32.074Z,4.50
2018-01-15T22:49:01.285Z,4.60
2018-01-15T22:51:30.404Z,4.60
2018-01-15T22:53:58.762Z,4.60
2018-01-15T22:56:27.160Z,4.60
2018-01-15T22:58:55.506Z,4.70
2018-01-15T23:01:23.874Z,4.70
2018-01-15T23:03:52.238Z,4.70
2018-01-15T23:06:20.597Z,4.70
2018-01-15T23:08:48.924Z,4.80
2018-01-15T23:11:17.272Z,4.80
2018-01-15T23:13:45.623Z,4.80
2018-01-15T23:16:13.976Z,4.90
2018-01-15T23:18:43.103Z,4.90
2018-01-15T23:21:11.416Z,4.80
2018-01-15T23:23:39.842Z,4.90
2018-01-15T23:26:08.194Z,4.90
2018-01-15T23:28:36.578Z,5.00
2018-01-15T23:31:04.960Z,5.00
2018-01-15T23:33:33.344Z,5.00
2018-01-15T23:36:02.437Z,5.00
2018-01-15T23:38:32.036Z,5.00
2018-01-15T23:41:00.353Z,5.00
2018-01-15T23:43:28.694Z,5.10
2018-01-15T23:45:57.071Z,5.10
2018-01-15T23:48:25.397Z,5.00
2018-01-15T23:50:53.800Z,5.10
2018-01-15T23:53:22.959Z,5.20
2018-01-15T23:55:52.090Z,5.30
2018-01-15T23:58:20.432Z,5.30
